sensor_id;sensor_type;location;lat;lon;timestamp;P1;durP1;ratioP1;P2;durP2;ratioP2
64075;SDS011;50327;51.328;12.324;2022-08-30T00:02:28;7.25;;;3.55;;
64075;SDS011;50327;51.328;12.324;2022-08-30T00:04:53;11.60;;;3.67;;
64075;SDS011;50327;51.328;12.324;2022-08-30T00:07:19;12.05;;;4.25;;
64075;SDS011;50327;51.328;12.324;2022-08-30T00:09:44;7.85;;;3.55;;
64075;SDS011;50327;51.328;12.324;2022-08-30T00:12:10;12.50;;;3.92;;
64075;SDS011;50327;51.328;12.324;2022-08-30T00:14:35;7.85;;;3.00;;
64075;SDS011;50327;51.328;12.324;2022-08-30T00:17:01;12.40;;;3.10;;
64075;SDS011;50327;51.328;12.324;2022-08-30T00:19:26;8.23;;;3.38;;
64075;SDS011;50327;51.328;12.324;2022-08-30T00:21:52;7.88;;;3.88;;
64075;SDS011;50327;51.328;12.324;2022-08-30T00:24:17;9.10;;;3.65;;
64075;SDS011;50327;51.328;12.324;2022-08-30T00:26:42;10.30;;;4.07;;
64075;SDS011;50327;51.328;12.324;2022-08-30T00:29:08;8.13;;;3.65;;
64075;SDS011;50327;51.328;12.324;2022-08-30T00:31:33;13.55;;;4.05;;
64075;SDS011;50327;51.328;12.324;2022-08-30T00:33:58;6.55;;;3.15;;
64075;SDS011;50327;51.328;12.324;2022-08-30T00:36:24;11.15;;;3.85;;
64075;SDS011;50327;51.328;12.324;2022-08-30T00:38:49;10.30;;;3.55;;
64075;SDS011;50327;51.328;12.324;2022-08-30T00:41:14;13.73;;;3.78;;
64075;SDS011;50327;51.328;12.324;2022-08-30T00:43:40;14.35;;;3.67;;
64075;SDS011;50327;51.328;12.324;2022-08-30T00:46:06;9.00;;;3.70;;
64075;SDS011;50327;51.328;12.324;2022-08-30T00:48:32;9.15;;;3.95;;
64075;SDS011;50327;51.328;12.324;2022-08-30T00:51:03;8.70;;;4.28;;
64075;SDS011;50327;51.328;12.324;2022-08-30T00:53:33;12.80;;;4.43;;
64075;SDS011;50327;51.328;12.324;2022-08-30T00:56:02;12.77;;;4.13;;
64075;SDS011;50327;51.328;12.324;2022-08-30T00:58:37;11.10;;;3.90;;
64075;SDS011;50327;51.328;12.324;2022-08-30T01:01:06;7.90;;;3.70;;
64075;SDS011;50327;51.328;12.324;2022-08-30T01:03:33;8.57;;;4.10;;
64075;SDS011;50327;51.328;12.324;2022-08-30T01:06:00;10.98;;;3.60;;
64075;SDS011;50327;51.328;12.324;2022-08-30T01:08:27;10.57;;;4.55;;
64075;SDS011;50327;51.328;12.324;2022-08-30T01:10:52;8.93;;;3.88;;
64075;SDS011;50327;51.328;12.324;2022-08-30T01:13:21;10.10;;;3.78;;
64075;SDS011;50327;51.328;12.324;2022-08-30T01:15:48;10.85;;;4.28;;
64075;SDS011;50327;51.328;12.324;2022-08-30T01:18:15;14.32;;;4.55;;
64075;SDS011;50327;51.328;12.324;2022-08-30T01:21:29;9.35;;;3.85;;
64075;SDS011;50327;51.328;12.324;2022-08-30T01:23:35;9.70;;;4.13;;
64075;SDS011;50327;51.328;12.324;2022-08-30T01:26:04;12.57;;;4.45;;
64075;SDS011;50327;51.328;12.324;2022-08-30T01:28:30;12.73;;;4.60;;
64075;SDS011;50327;51.328;12.324;2022-08-30T01:30:56;11.82;;;3.78;;
64075;SDS011;50327;51.328;12.324;2022-08-30T01:33:22;10.57;;;3.97;;
64075;SDS011;50327;51.328;12.324;2022-08-30T01:35:49;16.40;;;4.70;;
64075;SDS011;50327;51.328;12.324;2022-08-30T01:38:37;9.68;;;5.03;;
64075;SDS011;50327;51.328;12.324;2022-08-30T01:43:45;14.23;;;5.05;;
64075;SDS011;50327;51.328;12.324;2022-08-30T01:46:12;9.32;;;4.82;;
64075;SDS011;50327;51.328;12.324;2022-08-30T01:48:40;13.38;;;4.28;;
64075;SDS011;50327;51.328;12.324;2022-08-30T01:51:08;14.40;;;5.10;;
64075;SDS011;50327;51.328;12.324;2022-08-30T01:53:35;18.38;;;5.53;;
64075;SDS011;50327;51.328;12.324;2022-08-30T01:56:01;12.63;;;5.15;;
64075;SDS011;50327;51.328;12.324;2022-08-30T01:58:26;11.55;;;4.97;;
64075;SDS011;50327;51.328;12.324;2022-08-30T02:00:52;11.50;;;4.80;;
64075;SDS011;50327;51.328;12.324;2022-08-30T02:03:17;16.00;;;5.97;;
64075;SDS011;50327;51.328;12.324;2022-08-30T02:05:43;13.90;;;4.95;;
64075;SDS011;50327;51.328;12.324;2022-08-30T02:08:09;15.15;;;5.38;;
64075;SDS011;50327;51.328;12.324;2022-08-30T02:10:34;17.20;;;5.70;;
64075;SDS011;50327;51.328;12.324;2022-08-30T02:13:00;12.90;;;5.05;;
64075;SDS011;50327;51.328;12.324;2022-08-30T02:15:27;11.65;;;5.25;;
64075;SDS011;50327;51.328;12.324;2022-08-30T02:17:52;14.88;;;5.97;;
64075;SDS011;50327;51.328;12.324;2022-08-30T02:20:18;10.02;;;5.22;;
64075;SDS011;50327;51.328;12.324;2022-08-30T02:22:44;12.88;;;5.13;;
64075;SDS011;50327;51.328;12.324;2022-08-30T02:25:10;12.60;;;4.88;;
64075;SDS011;50327;51.328;12.324;2022-08-30T02:27:35;16.45;;;5.07;;
64075;SDS011;50327;51.328;12.324;2022-08-30T02:30:02;11.82;;;5.28;;
64075;SDS011;50327;51.328;12.324;2022-08-30T02:32:29;15.55;;;5.28;;
64075;SDS011;50327;51.328;12.324;2022-08-30T02:34:54;14.40;;;5.13;;
64075;SDS011;50327;51.328;12.324;2022-08-30T02:37:20;14.40;;;5.25;;
64075;SDS011;50327;51.328;12.324;2022-08-30T02:39:45;13.88;;;5.30;;
64075;SDS011;50327;51.328;12.324;2022-08-30T02:42:11;17.45;;;5.07;;
64075;SDS011;50327;51.328;12.324;2022-08-30T02:44:36;11.68;;;5.18;;
64075;SDS011;50327;51.328;12.324;2022-08-30T02:47:01;13.10;;;5.32;;
64075;SDS011;50327;51.328;12.324;2022-08-30T02:49:27;11.40;;;5.05;;
64075;SDS011;50327;51.328;12.324;2022-08-30T02:51:53;16.25;;;5.38;;
64075;SDS011;50327;51.328;12.324;2022-08-30T02:54:18;9.57;;;5.20;;
64075;SDS011;50327;51.328;12.324;2022-08-30T02:56:47;10.65;;;5.38;;
64075;SDS011;50327;51.328;12.324;2022-08-30T02:59:14;12.63;;;5.32;;
64075;SDS011;50327;51.328;12.324;2022-08-30T03:01:40;12.20;;;5.72;;
64075;SDS011;50327;51.328;12.324;2022-08-30T03:04:05;16.73;;;6.15;;
64075;SDS011;50327;51.328;12.324;2022-08-30T03:06:31;15.20;;;6.25;;
64075;SDS011;50327;51.328;12.324;2022-08-30T03:08:57;13.73;;;4.63;;
64075;SDS011;50327;51.328;12.324;2022-08-30T03:11:22;10.77;;;5.07;;
64075;SDS011;50327;51.328;12.324;2022-08-30T03:13:47;14.15;;;5.15;;
64075;SDS011;50327;51.328;12.324;2022-08-30T03:16:13;15.13;;;6.00;;
64075;SDS011;50327;51.328;12.324;2022-08-30T03:18:39;14.68;;;5.18;;
64075;SDS011;50327;51.328;12.324;2022-08-30T03:21:11;10.75;;;4.30;;
64075;SDS011;50327;51.328;12.324;2022-08-30T03:23:38;9.70;;;4.47;;
64075;SDS011;50327;51.328;12.324;2022-08-30T03:26:04;9.95;;;5.15;;
64075;SDS011;50327;51.328;12.324;2022-08-30T03:28:31;11.75;;;5.00;;
64075;SDS011;50327;51.328;12.324;2022-08-30T03:30:56;14.27;;;5.35;;
64075;SDS011;50327;51.328;12.324;2022-08-30T03:33:21;11.48;;;5.00;;
64075;SDS011;50327;51.328;12.324;2022-08-30T03:35:47;11.95;;;5.35;;
64075;SDS011;50327;51.328;12.324;2022-08-30T03:38:13;13.63;;;5.60;;
64075;SDS011;50327;51.328;12.324;2022-08-30T03:40:39;17.75;;;5.32;;
64075;SDS011;50327;51.328;12.324;2022-08-30T03:43:05;7.78;;;4.32;;
64075;SDS011;50327;51.328;12.324;2022-08-30T03:45:30;12.15;;;5.32;;
64075;SDS011;50327;51.328;12.324;2022-08-30T03:47:55;13.05;;;5.13;;
64075;SDS011;50327;51.328;12.324;2022-08-30T03:50:21;13.52;;;6.00;;
64075;SDS011;50327;51.328;12.324;2022-08-30T03:52:47;8.57;;;5.13;;
64075;SDS011;50327;51.328;12.324;2022-08-30T03:55:13;12.60;;;5.80;;
64075;SDS011;50327;51.328;12.324;2022-08-30T03:57:38;15.20;;;6.22;;
64075;SDS011;50327;51.328;12.324;2022-08-30T04:00:06;12.18;;;5.55;;
64075;SDS011;50327;51.328;12.324;2022-08-30T04:02:32;11.35;;;6.07;;
64075;SDS011;50327;51.328;12.324;2022-08-30T04:04:58;18.48;;;7.72;;
64075;SDS011;50327;51.328;12.324;2022-08-30T04:07:23;14.82;;;7.13;;
64075;SDS011;50327;51.328;12.324;2022-08-30T04:09:49;15.50;;;7.45;;
64075;SDS011;50327;51.328;12.324;2022-08-30T04:12:14;15.27;;;6.95;;
64075;SDS011;50327;51.328;12.324;2022-08-30T04:14:39;16.52;;;7.10;;
64075;SDS011;50327;51.328;12.324;2022-08-30T04:17:05;16.42;;;7.00;;
64075;SDS011;50327;51.328;12.324;2022-08-30T04:19:30;13.60;;;6.93;;
64075;SDS011;50327;51.328;12.324;2022-08-30T04:21:56;21.75;;;8.95;;
64075;SDS011;50327;51.328;12.324;2022-08-30T04:24:21;24.27;;;7.40;;
64075;SDS011;50327;51.328;12.324;2022-08-30T04:26:47;23.33;;;7.22;;
64075;SDS011;50327;51.328;12.324;2022-08-30T04:29:13;29.10;;;7.53;;
64075;SDS011;50327;51.328;12.324;2022-08-30T04:31:41;23.73;;;7.70;;
64075;SDS011;50327;51.328;12.324;2022-08-30T04:34:08;17.83;;;7.65;;
64075;SDS011;50327;51.328;12.324;2022-08-30T04:36:34;14.52;;;6.68;;
64075;SDS011;50327;51.328;12.324;2022-08-30T04:38:59;16.42;;;7.15;;
64075;SDS011;50327;51.328;12.324;2022-08-30T04:41:25;13.85;;;7.10;;
64075;SDS011;50327;51.328;12.324;2022-08-30T04:43:50;20.83;;;7.10;;
64075;SDS011;50327;51.328;12.324;2022-08-30T04:46:16;14.77;;;7.30;;
64075;SDS011;50327;51.328;12.324;2022-08-30T04:48:43;16.25;;;6.97;;
64075;SDS011;50327;51.328;12.324;2022-08-30T04:51:11;12.20;;;6.75;;
64075;SDS011;50327;51.328;12.324;2022-08-30T04:53:39;16.13;;;7.45;;
64075;SDS011;50327;51.328;12.324;2022-08-30T04:56:13;15.23;;;6.40;;
64075;SDS011;50327;51.328;12.324;2022-08-30T04:58:40;13.13;;;6.43;;
64075;SDS011;50327;51.328;12.324;2022-08-30T05:01:16;13.75;;;8.48;;
64075;SDS011;50327;51.328;12.324;2022-08-30T05:03:47;15.05;;;7.72;;
64075;SDS011;50327;51.328;12.324;2022-08-30T05:06:14;20.20;;;8.63;;
64075;SDS011;50327;51.328;12.324;2022-08-30T05:08:40;30.38;;;9.45;;
64075;SDS011;50327;51.328;12.324;2022-08-30T05:11:06;13.13;;;7.45;;
64075;SDS011;50327;51.328;12.324;2022-08-30T05:13:32;16.70;;;7.30;;
64075;SDS011;50327;51.328;12.324;2022-08-30T05:15:59;14.60;;;7.18;;
64075;SDS011;50327;51.328;12.324;2022-08-30T05:18:25;15.07;;;7.97;;
64075;SDS011;50327;51.328;12.324;2022-08-30T05:23:49;13.80;;;7.57;;
64075;SDS011;50327;51.328;12.324;2022-08-30T05:28:42;16.90;;;7.95;;
64075;SDS011;50327;51.328;12.324;2022-08-30T05:31:16;21.60;;;9.05;;
64075;SDS011;50327;51.328;12.324;2022-08-30T05:33:44;15.30;;;7.70;;
64075;SDS011;50327;51.328;12.324;2022-08-30T05:36:10;15.85;;;8.50;;
64075;SDS011;50327;51.328;12.324;2022-08-30T05:38:37;20.88;;;9.48;;
64075;SDS011;50327;51.328;12.324;2022-08-30T05:41:03;24.27;;;10.02;;
64075;SDS011;50327;51.328;12.324;2022-08-30T05:43:29;19.15;;;8.70;;
64075;SDS011;50327;51.328;12.324;2022-08-30T05:45:58;28.92;;;8.23;;
64075;SDS011;50327;51.328;12.324;2022-08-30T05:48:24;18.77;;;8.63;;
64075;SDS011;50327;51.328;12.324;2022-08-30T05:50:50;17.45;;;9.30;;
64075;SDS011;50327;51.328;12.324;2022-08-30T05:53:15;16.92;;;8.98;;
64075;SDS011;50327;51.328;12.324;2022-08-30T05:55:40;23.42;;;8.45;;
64075;SDS011;50327;51.328;12.324;2022-08-30T05:58:06;19.42;;;9.23;;
64075;SDS011;50327;51.328;12.324;2022-08-30T06:00:31;18.23;;;9.48;;
64075;SDS011;50327;51.328;12.324;2022-08-30T06:02:57;21.08;;;9.85;;
64075;SDS011;50327;51.328;12.324;2022-08-30T06:05:22;21.63;;;9.60;;
64075;SDS011;50327;51.328;12.324;2022-08-30T06:07:48;25.73;;;10.13;;
64075;SDS011;50327;51.328;12.324;2022-08-30T06:10:13;22.65;;;10.45;;
64075;SDS011;50327;51.328;12.324;2022-08-30T06:12:39;28.10;;;9.75;;
64075;SDS011;50327;51.328;12.324;2022-08-30T06:15:05;22.95;;;9.75;;
64075;SDS011;50327;51.328;12.324;2022-08-30T06:17:31;15.70;;;8.93;;
64075;SDS011;50327;51.328;12.324;2022-08-30T06:19:56;38.85;;;10.45;;
64075;SDS011;50327;51.328;12.324;2022-08-30T06:22:21;20.48;;;9.73;;
64075;SDS011;50327;51.328;12.324;2022-08-30T06:24:47;17.73;;;9.30;;
64075;SDS011;50327;51.328;12.324;2022-08-30T06:27:12;19.23;;;9.43;;
64075;SDS011;50327;51.328;12.324;2022-08-30T06:29:37;21.85;;;10.93;;
64075;SDS011;50327;51.328;12.324;2022-08-30T06:32:03;30.92;;;10.55;;
64075;SDS011;50327;51.328;12.324;2022-08-30T06:34:29;18.80;;;9.95;;
64075;SDS011;50327;51.328;12.324;2022-08-30T06:36:54;16.40;;;10.20;;
64075;SDS011;50327;51.328;12.324;2022-08-30T06:39:20;23.65;;;10.10;;
64075;SDS011;50327;51.328;12.324;2022-08-30T06:41:45;22.40;;;11.73;;
64075;SDS011;50327;51.328;12.324;2022-08-30T06:44:10;21.00;;;11.15;;
64075;SDS011;50327;51.328;12.324;2022-08-30T06:46:36;23.95;;;10.82;;
64075;SDS011;50327;51.328;12.324;2022-08-30T06:49:03;24.25;;;12.55;;
64075;SDS011;50327;51.328;12.324;2022-08-30T06:51:31;22.88;;;11.40;;
64075;SDS011;50327;51.328;12.324;2022-08-30T06:53:59;19.35;;;10.95;;
64075;SDS011;50327;51.328;12.324;2022-08-30T06:56:25;22.02;;;12.02;;
64075;SDS011;50327;51.328;12.324;2022-08-30T06:58:51;23.42;;;11.02;;
64075;SDS011;50327;51.328;12.324;2022-08-30T07:01:18;24.33;;;11.93;;
64075;SDS011;50327;51.328;12.324;2022-08-30T07:06:11;18.40;;;10.52;;
64075;SDS011;50327;51.328;12.324;2022-08-30T07:08:37;26.25;;;10.77;;
64075;SDS011;50327;51.328;12.324;2022-08-30T07:11:03;21.15;;;10.50;;
64075;SDS011;50327;51.328;12.324;2022-08-30T07:13:30;24.42;;;9.95;;
64075;SDS011;50327;51.328;12.324;2022-08-30T07:15:56;15.07;;;9.65;;
64075;SDS011;50327;51.328;12.324;2022-08-30T07:18:22;21.50;;;9.55;;
64075;SDS011;50327;51.328;12.324;2022-08-30T07:21:09;16.35;;;8.85;;
64075;SDS011;50327;51.328;12.324;2022-08-30T07:23:37;19.75;;;9.68;;
64075;SDS011;50327;51.328;12.324;2022-08-30T07:26:03;20.23;;;9.88;;
64075;SDS011;50327;51.328;12.324;2022-08-30T07:28:30;30.33;;;11.90;;
64075;SDS011;50327;51.328;12.324;2022-08-30T07:30:56;19.08;;;9.90;;
64075;SDS011;50327;51.328;12.324;2022-08-30T07:33:21;19.98;;;8.50;;
64075;SDS011;50327;51.328;12.324;2022-08-30T07:35:46;16.33;;;8.65;;
64075;SDS011;50327;51.328;12.324;2022-08-30T07:38:12;19.33;;;8.55;;
64075;SDS011;50327;51.328;12.324;2022-08-30T07:40:38;17.50;;;8.57;;
64075;SDS011;50327;51.328;12.324;2022-08-30T07:43:04;16.35;;;8.75;;
64075;SDS011;50327;51.328;12.324;2022-08-30T07:45:30;19.73;;;9.07;;
64075;SDS011;50327;51.328;12.324;2022-08-30T07:47:56;19.90;;;8.68;;
64075;SDS011;50327;51.328;12.324;2022-08-30T07:50:21;16.17;;;8.68;;
64075;SDS011;50327;51.328;12.324;2022-08-30T07:52:47;18.35;;;8.60;;
64075;SDS011;50327;51.328;12.324;2022-08-30T07:55:12;18.70;;;8.48;;
64075;SDS011;50327;51.328;12.324;2022-08-30T07:57:38;22.77;;;8.23;;
64075;SDS011;50327;51.328;12.324;2022-08-30T08:00:04;17.73;;;8.18;;
64075;SDS011;50327;51.328;12.324;2022-08-30T08:02:30;15.35;;;7.97;;
64075;SDS011;50327;51.328;12.324;2022-08-30T08:04:56;18.75;;;8.38;;
64075;SDS011;50327;51.328;12.324;2022-08-30T08:07:22;20.25;;;7.28;;
64075;SDS011;50327;51.328;12.324;2022-08-30T08:09:47;16.13;;;8.55;;
64075;SDS011;50327;51.328;12.324;2022-08-30T08:12:13;16.77;;;8.88;;
64075;SDS011;50327;51.328;12.324;2022-08-30T08:14:38;15.68;;;7.35;;
64075;SDS011;50327;51.328;12.324;2022-08-30T08:17:05;19.27;;;7.97;;
64075;SDS011;50327;51.328;12.324;2022-08-30T08:19:30;13.55;;;7.80;;
64075;SDS011;50327;51.328;12.324;2022-08-30T08:21:56;14.80;;;7.28;;
64075;SDS011;50327;51.328;12.324;2022-08-30T08:24:24;17.93;;;8.83;;
64075;SDS011;50327;51.328;12.324;2022-08-30T08:26:51;17.45;;;7.13;;
64075;SDS011;50327;51.328;12.324;2022-08-30T08:29:16;12.77;;;7.90;;
64075;SDS011;50327;51.328;12.324;2022-08-30T08:31:42;16.17;;;6.88;;
64075;SDS011;50327;51.328;12.324;2022-08-30T08:34:09;17.80;;;6.72;;
64075;SDS011;50327;51.328;12.324;2022-08-30T08:36:35;18.35;;;6.75;;
64075;SDS011;50327;51.328;12.324;2022-08-30T08:39:01;20.58;;;8.73;;
64075;SDS011;50327;51.328;12.324;2022-08-30T08:46:43;11.57;;;5.90;;
64075;SDS011;50327;51.328;12.324;2022-08-30T08:49:18;11.48;;;5.60;;
64075;SDS011;50327;51.328;12.324;2022-08-30T08:51:43;11.27;;;5.05;;
64075;SDS011;50327;51.328;12.324;2022-08-30T08:57:20;12.57;;;4.72;;
64075;SDS011;50327;51.328;12.324;2022-08-30T08:59:46;11.35;;;4.32;;
64075;SDS011;50327;51.328;12.324;2022-08-30T09:02:58;14.13;;;5.43;;
64075;SDS011;50327;51.328;12.324;2022-08-30T09:05:12;14.65;;;5.95;;
64075;SDS011;50327;51.328;12.324;2022-08-30T09:07:42;8.05;;;4.85;;
64075;SDS011;50327;51.328;12.324;2022-08-30T09:10:12;20.08;;;5.85;;
64075;SDS011;50327;51.328;12.324;2022-08-30T09:12:38;18.45;;;4.55;;
64075;SDS011;50327;51.328;12.324;2022-08-30T09:15:23;11.75;;;4.20;;
64075;SDS011;50327;51.328;12.324;2022-08-30T09:17:54;13.15;;;4.57;;
64075;SDS011;50327;51.328;12.324;2022-08-30T09:20:23;16.20;;;4.53;;
64075;SDS011;50327;51.328;12.324;2022-08-30T09:22:55;14.57;;;4.63;;
64075;SDS011;50327;51.328;12.324;2022-08-30T09:25:23;11.27;;;3.95;;
64075;SDS011;50327;51.328;12.324;2022-08-30T09:27:52;18.50;;;3.80;;
64075;SDS011;50327;51.328;12.324;2022-08-30T09:30:24;112.72;;;24.88;;
64075;SDS011;50327;51.328;12.324;2022-08-30T09:32:58;10.73;;;3.58;;
64075;SDS011;50327;51.328;12.324;2022-08-30T09:35:41;9.80;;;3.47;;
64075;SDS011;50327;51.328;12.324;2022-08-30T09:38:15;6.53;;;3.03;;
64075;SDS011;50327;51.328;12.324;2022-08-30T09:40:43;12.48;;;3.50;;
64075;SDS011;50327;51.328;12.324;2022-08-30T09:46:05;17.13;;;4.60;;
64075;SDS011;50327;51.328;12.324;2022-08-30T09:56:29;10.70;;;3.60;;
64075;SDS011;50327;51.328;12.324;2022-08-30T10:02:19;26.85;;;5.80;;
64075;SDS011;50327;51.328;12.324;2022-08-30T10:04:50;16.58;;;4.65;;
64075;SDS011;50327;51.328;12.324;2022-08-30T10:07:27;16.30;;;4.05;;
64075;SDS011;50327;51.328;12.324;2022-08-30T10:12:45;12.00;;;3.70;;
64075;SDS011;50327;51.328;12.324;2022-08-30T10:15:31;15.68;;;4.00;;
64075;SDS011;50327;51.328;12.324;2022-08-30T10:18:20;10.85;;;3.72;;
64075;SDS011;50327;51.328;12.324;2022-08-30T10:23:43;16.17;;;4.57;;
64075;SDS011;50327;51.328;12.324;2022-08-30T10:28:57;9.83;;;3.83;;
64075;SDS011;50327;51.328;12.324;2022-08-30T10:34:05;14.85;;;4.55;;
64075;SDS011;50327;51.328;12.324;2022-08-30T10:36:42;14.18;;;4.50;;
64075;SDS011;50327;51.328;12.324;2022-08-30T10:39:12;12.07;;;4.25;;
64075;SDS011;50327;51.328;12.324;2022-08-30T10:41:49;13.10;;;4.20;;
64075;SDS011;50327;51.328;12.324;2022-08-30T10:44:28;13.60;;;4.93;;
64075;SDS011;50327;51.328;12.324;2022-08-30T10:49:40;17.23;;;4.55;;
64075;SDS011;50327;51.328;12.324;2022-08-30T10:52:28;11.98;;;4.32;;
64075;SDS011;50327;51.328;12.324;2022-08-30T10:55:14;20.15;;;4.60;;
64075;SDS011;50327;51.328;12.324;2022-08-30T10:57:42;14.45;;;4.82;;
64075;SDS011;50327;51.328;12.324;2022-08-30T11:02:52;12.45;;;4.68;;
64075;SDS011;50327;51.328;12.324;2022-08-30T11:13:44;9.50;;;3.10;;
64075;SDS011;50327;51.328;12.324;2022-08-30T11:16:15;11.25;;;3.10;;
64075;SDS011;50327;51.328;12.324;2022-08-30T11:18:47;7.97;;;2.90;;
64075;SDS011;50327;51.328;12.324;2022-08-30T11:37:59;7.43;;;2.92;;
64075;SDS011;50327;51.328;12.324;2022-08-30T11:42:53;8.43;;;2.83;;
64075;SDS011;50327;51.328;12.324;2022-08-30T11:50:27;11.07;;;3.95;;
64075;SDS011;50327;51.328;12.324;2022-08-30T12:04:00;9.57;;;4.10;;
64075;SDS011;50327;51.328;12.324;2022-08-30T12:09:06;7.10;;;3.17;;
64075;SDS011;50327;51.328;12.324;2022-08-30T12:17:26;11.07;;;2.90;;
64075;SDS011;50327;51.328;12.324;2022-08-30T12:20:20;7.80;;;2.72;;
64075;SDS011;50327;51.328;12.324;2022-08-30T12:25:18;15.38;;;3.05;;
64075;SDS011;50327;51.328;12.324;2022-08-30T12:27:47;8.13;;;2.95;;
64075;SDS011;50327;51.328;12.324;2022-08-30T12:30:13;10.32;;;3.08;;
64075;SDS011;50327;51.328;12.324;2022-08-30T12:32:42;8.00;;;3.38;;
64075;SDS011;50327;51.328;12.324;2022-08-30T12:35:17;9.32;;;3.17;;
64075;SDS011;50327;51.328;12.324;2022-08-30T12:37:52;11.60;;;3.97;;
64075;SDS011;50327;51.328;12.324;2022-08-30T12:40:21;9.10;;;3.30;;
64075;SDS011;50327;51.328;12.324;2022-08-30T12:42:58;19.48;;;4.32;;
64075;SDS011;50327;51.328;12.324;2022-08-30T12:46:00;8.48;;;3.22;;
64075;SDS011;50327;51.328;12.324;2022-08-30T12:48:19;6.07;;;3.53;;
64075;SDS011;50327;51.328;12.324;2022-08-30T12:53:19;7.43;;;3.10;;
64075;SDS011;50327;51.328;12.324;2022-08-30T12:55:53;11.20;;;3.45;;
64075;SDS011;50327;51.328;12.324;2022-08-30T12:58:42;6.93;;;2.95;;
64075;SDS011;50327;51.328;12.324;2022-08-30T13:03:54;11.55;;;3.60;;
64075;SDS011;50327;51.328;12.324;2022-08-30T13:06:40;9.57;;;3.88;;
64075;SDS011;50327;51.328;12.324;2022-08-30T13:09:08;14.48;;;3.70;;
64075;SDS011;50327;51.328;12.324;2022-08-30T13:11:47;16.88;;;3.22;;
64075;SDS011;50327;51.328;12.324;2022-08-30T13:16:44;7.85;;;3.90;;
64075;SDS011;50327;51.328;12.324;2022-08-30T13:21:58;11.73;;;3.53;;
64075;SDS011;50327;51.328;12.324;2022-08-30T13:24:25;11.80;;;3.42;;
64075;SDS011;50327;51.328;12.324;2022-08-30T13:26:57;6.28;;;3.55;;
64075;SDS011;50327;51.328;12.324;2022-08-30T13:29:30;8.27;;;4.10;;
64075;SDS011;50327;51.328;12.324;2022-08-30T13:31:56;12.48;;;3.72;;
64075;SDS011;50327;51.328;12.324;2022-08-30T13:34:21;7.05;;;3.78;;
64075;SDS011;50327;51.328;12.324;2022-08-30T13:36:49;11.80;;;3.63;;
64075;SDS011;50327;51.328;12.324;2022-08-30T13:39:17;10.20;;;3.30;;
64075;SDS011;50327;51.328;12.324;2022-08-30T13:41:42;10.30;;;3.72;;
64075;SDS011;50327;51.328;12.324;2022-08-30T13:44:08;11.57;;;4.03;;
64075;SDS011;50327;51.328;12.324;2022-08-30T13:46:34;9.93;;;4.13;;
64075;SDS011;50327;51.328;12.324;2022-08-30T13:49:04;8.95;;;3.80;;
64075;SDS011;50327;51.328;12.324;2022-08-30T13:51:32;6.57;;;3.35;;
64075;SDS011;50327;51.328;12.324;2022-08-30T13:53:58;16.38;;;3.92;;
64075;SDS011;50327;51.328;12.324;2022-08-30T13:56:24;6.70;;;3.58;;
64075;SDS011;50327;51.328;12.324;2022-08-30T13:58:51;9.02;;;3.58;;
64075;SDS011;50327;51.328;12.324;2022-08-30T14:01:17;11.27;;;3.60;;
64075;SDS011;50327;51.328;12.324;2022-08-30T14:03:42;12.05;;;5.60;;
64075;SDS011;50327;51.328;12.324;2022-08-30T14:06:07;10.95;;;4.07;;
64075;SDS011;50327;51.328;12.324;2022-08-30T14:08:33;6.50;;;3.40;;
64075;SDS011;50327;51.328;12.324;2022-08-30T14:11:01;10.45;;;3.63;;
64075;SDS011;50327;51.328;12.324;2022-08-30T14:13:27;11.70;;;4.15;;
64075;SDS011;50327;51.328;12.324;2022-08-30T14:15:53;7.13;;;3.67;;
64075;SDS011;50327;51.328;12.324;2022-08-30T14:18:20;5.27;;;3.07;;
64075;SDS011;50327;51.328;12.324;2022-08-30T14:20:45;6.53;;;3.28;;
64075;SDS011;50327;51.328;12.324;2022-08-30T14:23:11;8.27;;;3.25;;
64075;SDS011;50327;51.328;12.324;2022-08-30T14:25:37;6.15;;;3.33;;
64075;SDS011;50327;51.328;12.324;2022-08-30T14:28:02;5.45;;;3.00;;
64075;SDS011;50327;51.328;12.324;2022-08-30T14:30:28;10.30;;;3.40;;
64075;SDS011;50327;51.328;12.324;2022-08-30T14:32:53;8.35;;;3.55;;
64075;SDS011;50327;51.328;12.324;2022-08-30T14:35:18;7.28;;;3.17;;
64075;SDS011;50327;51.328;12.324;2022-08-30T14:37:45;8.98;;;3.58;;
64075;SDS011;50327;51.328;12.324;2022-08-30T14:40:11;13.73;;;4.18;;
64075;SDS011;50327;51.328;12.324;2022-08-30T14:42:36;9.65;;;3.58;;
64075;SDS011;50327;51.328;12.324;2022-08-30T14:45:01;8.48;;;3.40;;
64075;SDS011;50327;51.328;12.324;2022-08-30T14:47:27;7.72;;;3.47;;
64075;SDS011;50327;51.328;12.324;2022-08-30T14:49:53;8.02;;;3.45;;
64075;SDS011;50327;51.328;12.324;2022-08-30T14:52:22;10.65;;;3.58;;
64075;SDS011;50327;51.328;12.324;2022-08-30T14:54:48;10.40;;;3.65;;
64075;SDS011;50327;51.328;12.324;2022-08-30T14:57:13;9.07;;;4.18;;
64075;SDS011;50327;51.328;12.324;2022-08-30T14:59:39;6.35;;;3.97;;
64075;SDS011;50327;51.328;12.324;2022-08-30T15:02:04;9.73;;;3.70;;
64075;SDS011;50327;51.328;12.324;2022-08-30T15:04:30;11.32;;;3.67;;
64075;SDS011;50327;51.328;12.324;2022-08-30T15:06:55;8.50;;;3.40;;
64075;SDS011;50327;51.328;12.324;2022-08-30T15:09:21;6.20;;;3.28;;
64075;SDS011;50327;51.328;12.324;2022-08-30T15:11:49;7.63;;;3.47;;
64075;SDS011;50327;51.328;12.324;2022-08-30T15:14:15;10.55;;;3.78;;
64075;SDS011;50327;51.328;12.324;2022-08-30T15:16:40;14.55;;;3.72;;
64075;SDS011;50327;51.328;12.324;2022-08-30T15:19:07;10.48;;;3.63;;
64075;SDS011;50327;51.328;12.324;2022-08-30T15:24:02;10.60;;;4.47;;
64075;SDS011;50327;51.328;12.324;2022-08-30T15:26:29;11.10;;;3.55;;
64075;SDS011;50327;51.328;12.324;2022-08-30T15:28:54;13.55;;;3.88;;
64075;SDS011;50327;51.328;12.324;2022-08-30T15:31:21;8.63;;;3.65;;
64075;SDS011;50327;51.328;12.324;2022-08-30T15:33:49;9.38;;;3.55;;
64075;SDS011;50327;51.328;12.324;2022-08-30T15:36:15;12.38;;;3.55;;
64075;SDS011;50327;51.328;12.324;2022-08-30T15:38:40;10.73;;;2.78;;
64075;SDS011;50327;51.328;12.324;2022-08-30T15:41:07;9.98;;;3.42;;
64075;SDS011;50327;51.328;12.324;2022-08-30T15:43:34;6.65;;;3.13;;
64075;SDS011;50327;51.328;12.324;2022-08-30T15:51:16;7.97;;;2.95;;
64075;SDS011;50327;51.328;12.324;2022-08-30T15:53:43;12.60;;;3.05;;
64075;SDS011;50327;51.328;12.324;2022-08-30T15:56:09;9.63;;;3.17;;
64075;SDS011;50327;51.328;12.324;2022-08-30T15:58:35;9.80;;;2.92;;
64075;SDS011;50327;51.328;12.324;2022-08-30T16:01:01;14.30;;;3.67;;
64075;SDS011;50327;51.328;12.324;2022-08-30T16:03:28;11.45;;;3.35;;
64075;SDS011;50327;51.328;12.324;2022-08-30T16:05:54;11.25;;;3.72;;
64075;SDS011;50327;51.328;12.324;2022-08-30T16:08:19;10.05;;;4.10;;
64075;SDS011;50327;51.328;12.324;2022-08-30T16:10:45;9.48;;;3.20;;
64075;SDS011;50327;51.328;12.324;2022-08-30T16:13:10;13.30;;;3.30;;
64075;SDS011;50327;51.328;12.324;2022-08-30T16:15:37;9.25;;;3.88;;
64075;SDS011;50327;51.328;12.324;2022-08-30T16:18:03;8.32;;;3.75;;
64075;SDS011;50327;51.328;12.324;2022-08-30T16:20:29;6.60;;;2.83;;
64075;SDS011;50327;51.328;12.324;2022-08-30T16:22:54;11.35;;;3.00;;
64075;SDS011;50327;51.328;12.324;2022-08-30T16:25:20;12.30;;;2.83;;
64075;SDS011;50327;51.328;12.324;2022-08-30T16:27:45;9.40;;;3.20;;
64075;SDS011;50327;51.328;12.324;2022-08-30T16:30:11;5.32;;;2.50;;